sensor_id;sensor_type;location;lat;lon;timestamp;P1;durP1;ratioP1;P2;durP2;ratioP2
57307;SDS011;43152;50.968;18.214;2023-06-26T00:08:26;7.90;;;3.00;;
57307;SDS011;43152;50.968;18.214;2023-06-26T00:18:10;9.50;;;3.40;;
57307;SDS011;43152;50.968;18.214;2023-06-26T00:27:54;11.80;;;4.40;;
57307;SDS011;43152;50.968;18.214;2023-06-26T00:37:37;17.10;;;6.60;;
57307;SDS011;43152;50.968;18.214;2023-06-26T00:47:21;12.00;;;4.40;;
57307;SDS011;43152;50.968;18.214;2023-06-26T00:57:04;12.60;;;5.30;;
57307;SDS011;43152;50.968;18.214;2023-06-26T01:06:47;6.60;;;2.70;;
57307;SDS011;43152;50.968;18.214;2023-06-26T01:27:45;13.00;;;5.10;;
57307;SDS011;43152;50.968;18.214;2023-06-26T01:37:29;11.30;;;3.50;;
57307;SDS011;43152;50.968;18.214;2023-06-26T01:47:14;11.10;;;4.30;;
57307;SDS011;43152;50.968;18.214;2023-06-26T01:57:49;10.20;;;3.90;;
57307;SDS011;43152;50.968;18.214;2023-06-26T02:07:35;15.70;;;5.60;;
57307;SDS011;43152;50.968;18.214;2023-06-26T02:17:18;10.60;;;4.20;;
57307;SDS011;43152;50.968;18.214;2023-06-26T02:27:06;17.00;;;4.20;;
57307;SDS011;43152;50.968;18.214;2023-06-26T02:36:48;10.10;;;4.90;;
57307;SDS011;43152;50.968;18.214;2023-06-26T02:46:31;10.50;;;4.70;;
57307;SDS011;43152;50.968;18.214;2023-06-26T02:56:13;11.30;;;4.80;;
57307;SDS011;43152;50.968;18.214;2023-06-26T03:05:55;21.30;;;3.70;;
57307;SDS011;43152;50.968;18.214;2023-06-26T03:15:37;12.40;;;3.70;;
57307;SDS011;43152;50.968;18.214;2023-06-26T03:25:19;8.20;;;3.80;;
57307;SDS011;43152;50.968;18.214;2023-06-26T03:35:02;11.90;;;4.60;;
57307;SDS011;43152;50.968;18.214;2023-06-26T03:44:45;8.90;;;4.00;;
57307;SDS011;43152;50.968;18.214;2023-06-26T03:54:28;10.20;;;4.40;;
57307;SDS011;43152;50.968;18.214;2023-06-26T04:04:09;10.80;;;5.20;;
57307;SDS011;43152;50.968;18.214;2023-06-26T04:13:52;11.00;;;4.90;;
57307;SDS011;43152;50.968;18.214;2023-06-26T04:23:37;13.70;;;5.30;;
57307;SDS011;43152;50.968;18.214;2023-06-26T04:33:25;19.60;;;4.70;;
57307;SDS011;43152;50.968;18.214;2023-06-26T04:43:09;11.10;;;5.30;;
57307;SDS011;43152;50.968;18.214;2023-06-26T04:52:54;12.70;;;6.70;;
57307;SDS011;43152;50.968;18.214;2023-06-26T05:02:39;10.80;;;6.10;;
57307;SDS011;43152;50.968;18.214;2023-06-26T05:12:21;8.40;;;4.80;;
57307;SDS011;43152;50.968;18.214;2023-06-26T05:22:04;11.60;;;6.20;;
57307;SDS011;43152;50.968;18.214;2023-06-26T05:31:50;8.90;;;6.10;;
57307;SDS011;43152;50.968;18.214;2023-06-26T05:41:34;11.60;;;3.60;;
57307;SDS011;43152;50.968;18.214;2023-06-26T05:51:16;17.30;;;6.70;;
57307;SDS011;43152;50.968;18.214;2023-06-26T06:01:00;13.30;;;5.10;;
57307;SDS011;43152;50.968;18.214;2023-06-26T06:10:42;10.40;;;4.90;;
57307;SDS011;43152;50.968;18.214;2023-06-26T06:20:25;14.00;;;5.50;;
57307;SDS011;43152;50.968;18.214;2023-06-26T06:48:20;12.60;;;4.70;;
57307;SDS011;43152;50.968;18.214;2023-06-26T06:58:02;8.40;;;4.40;;
57307;SDS011;43152;50.968;18.214;2023-06-26T07:07:44;7.20;;;3.10;;
57307;SDS011;43152;50.968;18.214;2023-06-26T07:17:30;12.50;;;3.90;;
57307;SDS011;43152;50.968;18.214;2023-06-26T07:27:15;8.80;;;4.70;;
57307;SDS011;43152;50.968;18.214;2023-06-26T07:44:16;7.30;;;2.10;;
57307;SDS011;43152;50.968;18.214;2023-06-26T07:54:01;6.20;;;3.30;;
57307;SDS011;43152;50.968;18.214;2023-06-26T08:03:44;12.70;;;3.40;;
57307;SDS011;43152;50.968;18.214;2023-06-26T08:13:26;13.60;;;2.10;;
57307;SDS011;43152;50.968;18.214;2023-06-26T08:23:09;7.30;;;2.70;;
57307;SDS011;43152;50.968;18.214;2023-06-26T08:32:56;6.50;;;2.70;;
57307;SDS011;43152;50.968;18.214;2023-06-26T08:42:42;7.30;;;2.70;;
57307;SDS011;43152;50.968;18.214;2023-06-26T08:52:37;20.20;;;2.50;;
57307;SDS011;43152;50.968;18.214;2023-06-26T09:02:25;3.70;;;1.30;;
57307;SDS011;43152;50.968;18.214;2023-06-26T09:12:11;7.10;;;2.30;;
57307;SDS011;43152;50.968;18.214;2023-06-26T09:21:54;4.30;;;1.90;;
57307;SDS011;43152;50.968;18.214;2023-06-26T09:31:37;9.30;;;2.60;;
57307;SDS011;43152;50.968;18.214;2023-06-26T09:41:26;6.60;;;2.70;;
57307;SDS011;43152;50.968;18.214;2023-06-26T09:54:21;4.20;;;1.40;;
57307;SDS011;43152;50.968;18.214;2023-06-26T10:04:09;4.60;;;2.00;;
57307;SDS011;43152;50.968;18.214;2023-06-26T10:14:12;4.70;;;2.20;;
57307;SDS011;43152;50.968;18.214;2023-06-26T10:23:57;6.50;;;2.70;;
57307;SDS011;43152;50.968;18.214;2023-06-26T10:33:43;7.50;;;1.70;;
57307;SDS011;43152;50.968;18.214;2023-06-26T10:44:09;6.70;;;2.60;;
57307;SDS011;43152;50.968;18.214;2023-06-26T10:54:30;7.90;;;3.30;;
57307;SDS011;43152;50.968;18.214;2023-06-26T11:04:38;4.20;;;2.20;;
57307;SDS011;43152;50.968;18.214;2023-06-26T11:15:08;5.30;;;2.50;;
57307;SDS011;43152;50.968;18.214;2023-06-26T11:24:53;5.20;;;2.00;;
57307;SDS011;43152;50.968;18.214;2023-06-26T11:34:40;6.10;;;2.20;;
57307;SDS011;43152;50.968;18.214;2023-06-26T11:44:28;4.00;;;1.70;;
57307;SDS011;43152;50.968;18.214;2023-06-26T11:54:32;6.00;;;2.30;;
57307;SDS011;43152;50.968;18.214;2023-06-26T12:04:19;4.40;;;1.40;;
57307;SDS011;43152;50.968;18.214;2023-06-26T12:14:06;6.40;;;2.10;;
57307;SDS011;43152;50.968;18.214;2023-06-26T12:34:46;13.30;;;2.70;;
57307;SDS011;43152;50.968;18.214;2023-06-26T12:42:13;7.70;;;3.20;;
57307;SDS011;43152;50.968;18.214;2023-06-26T12:52:02;6.60;;;2.10;;
57307;SDS011;43152;50.968;18.214;2023-06-26T13:01:52;4.90;;;2.80;;
57307;SDS011;43152;50.968;18.214;2023-06-26T13:11:36;9.90;;;1.80;;
57307;SDS011;43152;50.968;18.214;2023-06-26T13:21:21;7.20;;;2.30;;
57307;SDS011;43152;50.968;18.214;2023-06-26T13:31:03;5.60;;;2.00;;
57307;SDS011;43152;50.968;18.214;2023-06-26T13:40:53;4.30;;;1.90;;
57307;SDS011;43152;50.968;18.214;2023-06-26T13:50:37;2.40;;;1.00;;
57307;SDS011;43152;50.968;18.214;2023-06-26T14:00:21;8.00;;;2.50;;
57307;SDS011;43152;50.968;18.214;2023-06-26T14:10:09;5.00;;;2.50;;
57307;SDS011;43152;50.968;18.214;2023-06-26T14:19:52;5.00;;;1.90;;
57307;SDS011;43152;50.968;18.214;2023-06-26T14:29:37;5.70;;;1.80;;
57307;SDS011;43152;50.968;18.214;2023-06-26T14:39:20;3.90;;;1.50;;
57307;SDS011;43152;50.968;18.214;2023-06-26T14:49:04;7.00;;;2.30;;
57307;SDS011;43152;50.968;18.214;2023-06-26T14:58:47;4.90;;;2.00;;
57307;SDS011;43152;50.968;18.214;2023-06-26T15:08:33;4.10;;;1.70;;
57307;SDS011;43152;50.968;18.214;2023-06-26T15:18:17;3.90;;;1.50;;
57307;SDS011;43152;50.968;18.214;2023-06-26T15:28:04;4.20;;;1.80;;
57307;SDS011;43152;50.968;18.214;2023-06-26T15:37:47;5.00;;;2.30;;
57307;SDS011;43152;50.968;18.214;2023-06-26T15:47:40;7.20;;;2.80;;
57307;SDS011;43152;50.968;18.214;2023-06-26T15:57:23;11.40;;;2.20;;
57307;SDS011;43152;50.968;18.214;2023-06-26T16:07:06;4.60;;;2.00;;
57307;SDS011;43152;50.968;18.214;2023-06-26T16:16:48;5.30;;;2.00;;
57307;SDS011;43152;50.968;18.214;2023-06-26T16:26:30;4.00;;;1.20;;
57307;SDS011;43152;50.968;18.214;2023-06-26T16:36:13;4.90;;;2.00;;
57307;SDS011;43152;50.968;18.214;2023-06-26T16:45:59;3.80;;;1.70;;
57307;SDS011;43152;50.968;18.214;2023-06-26T16:55:42;4.50;;;2.00;;
57307;SDS011;43152;50.968;18.214;2023-06-26T17:05:29;3.70;;;1.50;;
57307;SDS011;43152;50.968;18.214;2023-06-26T17:15:13;10.70;;;1.60;;
57307;SDS011;43152;50.968;18.214;2023-06-26T17:25:02;4.00;;;1.40;;
57307;SDS011;43152;50.968;18.214;2023-06-26T17:34:50;2.40;;;1.20;;
57307;SDS011;43152;50.968;18.214;2023-06-26T17:44:34;3.80;;;1.60;;
57307;SDS011;43152;50.968;18.214;2023-06-26T17:54:17;5.30;;;2.10;;
57307;SDS011;43152;50.968;18.214;2023-06-26T18:04:03;9.00;;;1.50;;
57307;SDS011;43152;50.968;18.214;2023-06-26T18:13:45;6.40;;;1.90;;
57307;SDS011;43152;50.968;18.214;2023-06-26T18:23:34;3.30;;;1.20;;
57307;SDS011;43152;50.968;18.214;2023-06-26T18:33:18;7.10;;;2.30;;
57307;SDS011;43152;50.968;18.214;2023-06-26T18:43:03;8.00;;;4.20;;
57307;SDS011;43152;50.968;18.214;2023-06-26T18:52:53;8.00;;;3.60;;
57307;SDS011;43152;50.968;18.214;2023-06-26T19:09:40;8.90;;;3.50;;
57307;SDS011;43152;50.968;18.214;2023-06-26T19:19:25;14.30;;;7.40;;
57307;SDS011;43152;50.968;18.214;2023-06-26T19:29:08;10.90;;;4.30;;
57307;SDS011;43152;50.968;18.214;2023-06-26T19:38:51;7.40;;;2.90;;
57307;SDS011;43152;50.968;18.214;2023-06-26T19:48:35;5.50;;;2.60;;
57307;SDS011;43152;50.968;18.214;2023-06-26T19:58:20;8.50;;;2.60;;
57307;SDS011;43152;50.968;18.214;2023-06-26T20:08:04;7.90;;;2.90;;
57307;SDS011;43152;50.968;18.214;2023-06-26T20:17:49;7.20;;;3.00;;
57307;SDS011;43152;50.968;18.214;2023-06-26T20:27:33;8.80;;;2.30;;
57307;SDS011;43152;50.968;18.214;2023-06-26T20:37:18;5.70;;;2.00;;
57307;SDS011;43152;50.968;18.214;2023-06-26T20:47:03;2.90;;;1.60;;
57307;SDS011;43152;50.968;18.214;2023-06-26T20:57:00;6.50;;;2.90;;
57307;SDS011;43152;50.968;18.214;2023-06-26T21:06:43;3.50;;;2.00;;
57307;SDS011;43152;50.968;18.214;2023-06-26T21:16:26;6.70;;;2.50;;
57307;SDS011;43152;50.968;18.214;2023-06-26T21:26:08;12.80;;;3.20;;
57307;SDS011;43152;50.968;18.214;2023-06-26T21:35:50;8.10;;;3.00;;
57307;SDS011;43152;50.968;18.214;2023-06-26T21:45:33;28.20;;;3.50;;
57307;SDS011;43152;50.968;18.214;2023-06-26T21:55:18;15.60;;;3.20;;
57307;SDS011;43152;50.968;18.214;2023-06-26T22:21:19;8.50;;;3.70;;
57307;SDS011;43152;50.968;18.214;2023-06-26T22:31:03;9.50;;;3.60;;
57307;SDS011;43152;50.968;18.214;2023-06-26T22:40:45;6.10;;;2.10;;
57307;SDS011;43152;50.968;18.214;2023-06-26T22:50:28;13.00;;;2.90;;
57307;SDS011;43152;50.968;18.214;2023-06-26T23:00:13;11.00;;;3.20;;
57307;SDS011;43152;50.968;18.214;2023-06-26T23:10:03;12.40;;;2.90;;
57307;SDS011;43152;50.968;18.214;2023-06-26T23:19:47;8.10;;;3.30;;
57307;SDS011;43152;50.968;18.214;2023-06-26T23:29:37;11.20;;;5.50;;
57307;SDS011;43152;50.968;18.214;2023-06-26T23:39:30;7.80;;;3.50;;
57307;SDS011;43152;50.968;18.214;2023-06-26T23:49:13;8.60;;;4.30;;
57307;SDS011;43152;50.968;18.214;2023-06-26T23:58:56;7.70;;;3.30;;
